createdAt,value
2019-04-05T00:00:35.834Z,94319.00
2019-04-05T00:06:05.229Z,94333.00
2019-04-05T00:11:39.874Z,94329.00
2019-04-05T00:17:07.711Z,94326.00
2019-04-05T00:22:37.157Z,94338.00
2019-04-05T00:28:07.435Z,94347.00
2019-04-05T00:33:39.285Z,94348.00
2019-04-05T00:39:10.783Z,94362.00
2019-04-05T00:44:40.248Z,94358.00
2019-04-05T00:50:10.536Z,94355.00
2019-04-05T00:55:40.723Z,94349.00
2019-04-05T01:01:11.151Z,94340.00
2019-04-05T01:06:40.612Z,94341.00
2019-04-05T01:12:12.782Z,94350.00
2019-04-05T01:17:43.019Z,94333.00
2019-04-05T01:23:12.989Z,94343.00
2019-04-05T01:28:42.513Z,94343.00
2019-04-05T01:34:11.898Z,94342.00
2019-04-05T01:39:42.855Z,94347.00
2019-04-05T01:45:12.471Z,94347.00
2019-04-05T01:50:41.989Z,94356.00
2019-04-05T01:56:11.305Z,94355.00
2019-04-05T02:01:42.131Z,94355.00
2019-04-05T02:07:11.629Z,94354.00
2019-04-05T02:12:41.550Z,94365.00
2019-04-05T02:18:10.994Z,94365.00
2019-04-05T02:23:44.923Z,94360.00
2019-04-05T02:29:14.407Z,94359.00
2019-04-05T02:34:43.919Z,94362.00
2019-04-05T02:40:16.591Z,94371.00
2019-04-05T02:45:48.243Z,94372.00
2019-04-05T02:51:21.906Z,94376.00
2019-04-05T02:56:51.982Z,94381.00
2019-04-05T03:02:22.182Z,94364.00
2019-04-05T03:07:52.131Z,94363.00
2019-04-05T03:13:24.178Z,94368.00
2019-04-05T03:19:04.374Z,94368.00
2019-04-05T03:24:37.162Z,94374.00
2019-04-05T03:30:09.364Z,94369.00
2019-04-05T03:35:38.772Z,94371.00
2019-04-05T03:41:08.557Z,94380.00
2019-04-05T03:46:54.856Z,94378.00
2019-04-05T03:52:09.563Z,94382.00
2019-04-05T03:57:39.000Z,94362.00
2019-04-05T04:03:08.437Z,94366.00
2019-04-05T04:08:38.034Z,94378.00
2019-04-05T04:14:08.083Z,94369.00
2019-04-05T04:19:38.060Z,94372.00
2019-04-05T04:25:08.752Z,94372.00
2019-04-05T04:30:39.001Z,94366.00
2019-04-05T04:36:12.764Z,94366.00
2019-04-05T04:41:40.112Z,94386.00
2019-04-05T04:47:09.658Z,94381.00
2019-04-05T04:52:39.420Z,94384.00
2019-04-05T04:58:10.446Z,94392.00
2019-04-05T05:03:42.075Z,94387.00
2019-04-05T05:09:11.711Z,94391.00
2019-04-05T05:14:41.283Z,94389.00
2019-04-05T05:20:11.552Z,94400.00
2019-04-05T05:25:41.118Z,94396.00
2019-04-05T05:31:10.687Z,94401.00
2019-04-05T05:36:40.093Z,94411.00
2019-04-05T05:42:11.185Z,94410.00
2019-04-05T05:47:51.284Z,94409.00
2019-04-05T05:53:12.862Z,94406.00
2019-04-05T05:58:42.290Z,94399.00
2019-04-05T06:04:12.825Z,94401.00
2019-04-05T06:09:42.289Z,94402.00
2019-04-05T06:15:12.453Z,94401.00
2019-04-05T06:20:42.857Z,94394.00
2019-04-05T06:26:12.187Z,94382.00
2019-04-05T06:31:41.720Z,94399.00
2019-04-05T06:37:11.035Z,94393.00
2019-04-05T06:42:40.373Z,94395.00
2019-04-05T06:48:19.181Z,94401.00
2019-04-05T06:53:41.034Z,94390.00
2019-04-05T06:59:10.424Z,94391.00
2019-04-05T07:04:40.171Z,94397.00
2019-04-05T07:10:09.871Z,94405.00
2019-04-05T07:15:39.232Z,94404.00
2019-04-05T07:21:08.701Z,94393.00
2019-04-05T07:26:38.100Z,94406.00
2019-04-05T07:32:07.504Z,94409.00
2019-04-05T07:37:37.999Z,94426.00
2019-04-05T07:43:07.492Z,94420.00
2019-04-05T07:48:44.763Z,94417.00
2019-04-05T07:54:07.986Z,94421.00
2019-04-05T07:59:37.383Z,94416.00
2019-04-05T08:05:08.371Z,94410.00
2019-04-05T08:10:37.834Z,94418.00
2019-04-05T08:16:07.620Z,94409.00
2019-04-05T08:21:36.868Z,94414.00
2019-04-05T08:27:06.268Z,94419.00
2019-04-05T08:32:35.989Z,94422.00
2019-04-05T08:38:05.955Z,94428.00
2019-04-05T08:43:35.397Z,94425.00
2019-04-05T08:49:10.919Z,94422.00
2019-04-05T08:54:37.112Z,94406.00
2019-04-05T09:00:09.393Z,94408.00
2019-04-05T09:05:38.940Z,94402.00
2019-04-05T09:11:08.285Z,94399.00
2019-04-05T09:16:37.711Z,94406.00
2019-04-05T09:22:07.111Z,94405.00
2019-04-05T09:27:36.591Z,94408.00
2019-04-05T09:33:06.155Z,94411.00
2019-04-05T09:38:35.563Z,94418.00
2019-04-05T09:44:05.768Z,94415.00
2019-04-05T09:49:37.039Z,94418.00
2019-04-05T09:55:07.893Z,94428.00
2019-04-05T10:00:38.690Z,94424.00
2019-04-05T10:06:08.166Z,94427.00
2019-04-05T10:11:37.693Z,94415.00
2019-04-05T10:17:07.987Z,94413.00
2019-04-05T10:22:40.352Z,94412.00
2019-04-05T10:28:12.290Z,94411.00
2019-04-05T10:33:43.445Z,94400.00
2019-04-05T10:39:14.945Z,94396.00
2019-04-05T10:44:45.401Z,94391.00
2019-04-05T10:50:16.414Z,94397.00
2019-04-05T10:55:45.900Z,94390.00
2019-04-05T11:01:15.306Z,94381.00
2019-04-05T11:06:44.799Z,94387.00
2019-04-05T11:12:14.325Z,94374.00
2019-04-05T11:17:43.722Z,94379.00
2019-04-05T11:23:13.220Z,94380.00
2019-04-05T11:28:42.630Z,94372.00
2019-04-05T11:34:12.191Z,94376.00
2019-04-05T11:39:41.645Z,94372.00
2019-04-05T11:45:11.325Z,94375.00
2019-04-05T11:50:41.002Z,94371.00
2019-04-05T11:56:14.871Z,94373.00
2019-04-05T12:01:49.113Z,94375.00
2019-04-05T12:07:21.617Z,94374.00
2019-04-05T12:12:49.853Z,94357.00
2019-04-05T12:18:19.660Z,94357.00
2019-04-05T12:23:49.318Z,94349.00
2019-04-05T12:29:18.659Z,94340.00
2019-04-05T12:34:49.531Z,94337.00
2019-04-05T12:40:20.898Z,94342.00
2019-04-05T12:45:50.352Z,94332.00
2019-04-05T12:51:19.747Z,94327.00
2019-04-05T12:56:49.294Z,94322.00
2019-04-05T13:02:27.882Z,94326.00
2019-04-05T13:07:50.651Z,94309.00
2019-04-05T13:13:21.177Z,94318.00
2019-04-05T13:18:50.558Z,94303.00
2019-04-05T13:24:19.868Z,94311.00
2019-04-05T13:29:49.683Z,94298.00
2019-04-05T13:35:18.995Z,94290.00
2019-04-05T13:40:48.396Z,94301.00
2019-04-05T13:46:22.208Z,94284.00
2019-04-05T13:51:49.207Z,94292.00
2019-04-05T13:57:18.668Z,94288.00
2019-04-05T14:02:50.015Z,94287.00
2019-04-05T14:08:19.225Z,94286.00
2019-04-05T14:13:48.556Z,94275.00
2019-04-05T14:19:19.133Z,94285.00
2019-04-05T14:24:50.401Z,94286.00
2019-04-05T14:30:20.023Z,94282.00
2019-04-05T14:35:49.363Z,94279.00
2019-04-05T14:41:18.825Z,94267.00
2019-04-05T14:46:48.146Z,94270.00
2019-04-05T14:52:18.094Z,94265.00
2019-04-05T14:57:47.550Z,94260.00
2019-04-05T15:03:17.181Z,94260.00
2019-04-05T15:08:48.055Z,94267.00
2019-04-05T15:14:17.712Z,94267.00
2019-04-05T15:19:47.049Z,94264.00
2019-04-05T15:25:18.810Z,94267.00
2019-04-05T15:30:49.494Z,94263.00
2019-04-05T15:36:19.345Z,94264.00
2019-04-05T15:41:48.814Z,94269.00
2019-04-05T15:47:18.303Z,94257.00
2019-04-05T15:52:47.726Z,94261.00
2019-04-05T15:58:17.206Z,94267.00
2019-04-05T16:03:52.799Z,94266.00
2019-04-05T16:09:22.532Z,94262.00
2019-04-05T16:14:52.158Z,94258.00
2019-04-05T16:20:22.001Z,94256.00
2019-04-05T16:25:51.620Z,94252.00
2019-04-05T16:31:21.193Z,94246.00
2019-04-05T16:36:50.855Z,94257.00
2019-04-05T16:42:20.373Z,94260.00
2019-04-05T16:47:49.902Z,94266.00
2019-04-05T16:53:19.930Z,94258.00
2019-04-05T16:58:49.589Z,94265.00
2019-04-05T17:04:20.013Z,94267.00
2019-04-05T17:09:49.685Z,94259.00
2019-04-05T17:15:19.252Z,94257.00
2019-04-05T17:20:49.073Z,94260.00
2019-04-05T17:26:18.460Z,94255.00
2019-04-05T17:31:47.892Z,94265.00
2019-04-05T17:37:17.500Z,94269.00
2019-04-05T17:42:47.078Z,94271.00
2019-04-05T17:48:16.450Z,94284.00
2019-04-05T17:53:49.137Z,94277.00
2019-04-05T17:59:20.605Z,94290.00
2019-04-05T18:04:50.433Z,94290.00
2019-04-05T18:10:21.018Z,94287.00
2019-04-05T18:16:08.290Z,94296.00
2019-04-05T18:28:18.045Z,94296.00
2019-04-05T18:33:47.411Z,94304.00
2019-04-05T18:39:17.051Z,94306.00
2019-04-05T18:44:46.635Z,94315.00
2019-04-05T18:50:16.311Z,94331.00
2019-04-05T18:55:46.003Z,94332.00
2019-04-05T19:01:16.550Z,94330.00
2019-04-05T19:06:48.664Z,94324.00
2019-04-05T19:12:20.069Z,94339.00
2019-04-05T19:17:49.814Z,94338.00
2019-04-05T19:23:19.161Z,94328.00
2019-04-05T19:28:48.586Z,94342.00
2019-04-05T19:51:03.709Z,94348.00
2019-04-05T19:56:42.279Z,94368.00
2019-04-05T20:02:19.201Z,94369.00
2019-04-05T20:08:26.963Z,94367.00
2019-04-05T20:13:58.668Z,94360.00
2019-04-05T20:19:28.383Z,94368.00
2019-04-05T20:24:58.036Z,94370.00
2019-04-05T20:30:27.698Z,94373.00
2019-04-05T20:35:57.214Z,94366.00
2019-04-05T20:41:27.862Z,94371.00
2019-04-05T20:46:57.380Z,94384.00
2019-04-05T20:52:27.907Z,94394.00
2019-04-05T20:57:57.760Z,94390.00
2019-04-05T21:03:27.422Z,94389.00
2019-04-05T21:08:57.077Z,94393.00
2019-04-05T21:14:28.681Z,94377.00
2019-04-05T21:19:58.428Z,94376.00
2019-04-05T21:25:28.220Z,94379.00
2019-04-05T21:30:58.041Z,94388.00
2019-04-05T21:36:27.787Z,94387.00
2019-04-05T21:41:57.422Z,94390.00
2019-04-05T21:47:26.903Z,94399.00
2019-04-05T21:52:56.434Z,94396.00
2019-04-05T21:58:26.044Z,94399.00
2019-04-05T22:03:56.004Z,94391.00
2019-04-05T22:09:25.593Z,94392.00
2019-04-05T22:14:55.024Z,94400.00
2019-04-05T22:20:24.573Z,94398.00
2019-04-05T22:25:55.830Z,94396.00
2019-04-05T22:31:25.283Z,94400.00
2019-04-05T22:36:55.679Z,94393.00
2019-04-05T22:42:27.172Z,94388.00
2019-04-05T22:47:57.587Z,94405.00
2019-04-05T22:53:27.083Z,94408.00
2019-04-05T22:58:56.719Z,94413.00
2019-04-05T23:04:26.186Z,94416.00
2019-04-05T23:09:55.815Z,94418.00
2019-04-05T23:15:25.322Z,94420.00
2019-04-05T23:20:54.868Z,94426.00
2019-04-05T23:26:25.909Z,94418.00
2019-04-05T23:31:55.422Z,94423.00
2019-04-05T23:37:25.066Z,94422.00
2019-04-05T23:42:54.546Z,94418.00
2019-04-05T23:48:23.922Z,94422.00
2019-04-05T23:53:53.382Z,94411.00
2019-04-05T23:59:22.675Z,94418.00
